sensor_id;sensor_type;location;lat;lon;timestamp;pressure;altitude;pressure_sealevel;temperature;humidity
14800;BME280;7491;57.750;11.970;2023-04-05T00:01:52;77835.66;;;-142.11;100.00
14800;BME280;7491;57.750;11.970;2023-04-05T00:04:19;77839.72;;;-142.11;100.00
14800;BME280;7491;57.750;11.970;2023-04-05T00:06:48;77847.88;;;-142.11;100.00
14800;BME280;7491;57.750;11.970;2023-04-05T00:09:19;77854.00;;;-142.11;100.00
14800;BME280;7491;57.750;11.970;2023-04-05T00:11:47;77872.34;;;-142.11;100.00
14800;BME280;7491;57.750;11.970;2023-04-05T00:14:14;77882.56;;;-142.11;100.00
14800;BME280;7491;57.750;11.970;2023-04-05T00:16:41;77902.94;;;-142.11;100.00
14800;BME280;7491;57.750;11.970;2023-04-05T00:19:08;77907.03;;;-142.11;100.00
14800;BME280;7491;57.750;11.970;2023-04-05T00:21:37;77935.59;;;-142.11;100.00
14800;BME280;7491;57.750;11.970;2023-04-05T00:24:05;77933.53;;;-142.11;100.00
14800;BME280;7491;57.750;11.970;2023-04-05T00:26:33;77945.78;;;-142.11;100.00
14800;BME280;7491;57.750;11.970;2023-04-05T00:29:00;77964.13;;;-142.11;100.00
14800;BME280;7491;57.750;11.970;2023-04-05T00:31:28;77953.94;;;-142.11;100.00
14800;BME280;7491;57.750;11.970;2023-04-05T00:33:54;77958.00;;;-142.11;100.00
14800;BME280;7491;57.750;11.970;2023-04-05T00:36:21;77966.19;;;-142.11;100.00
14800;BME280;7491;57.750;11.970;2023-04-05T00:38:48;77966.19;;;-142.11;100.00
14800;BME280;7491;57.750;11.970;2023-04-05T00:41:15;77966.19;;;-142.11;100.00
14800;BME280;7491;57.750;11.970;2023-04-05T00:43:43;77955.97;;;-142.11;100.00
14800;BME280;7491;57.750;11.970;2023-04-05T00:46:10;77941.69;;;-142.11;100.00
14800;BME280;7491;57.750;11.970;2023-04-05T00:48:37;77937.63;;;-142.11;100.00
14800;BME280;7491;57.750;11.970;2023-04-05T00:51:04;77937.63;;;-142.11;100.00
14800;BME280;7491;57.750;11.970;2023-04-05T00:53:33;77937.63;;;-142.11;100.00
14800;BME280;7491;57.750;11.970;2023-04-05T00:56:00;77935.59;;;-142.11;100.00
14800;BME280;7491;57.750;11.970;2023-04-05T00:58:28;77943.75;;;-142.11;100.00
14800;BME280;7491;57.750;11.970;2023-04-05T01:01:02;77947.81;;;-142.11;100.00
14800;BME280;7491;57.750;11.970;2023-04-05T01:03:31;77953.94;;;-142.11;100.00
14800;BME280;7491;57.750;11.970;2023-04-05T01:06:07;77960.06;;;-142.11;100.00
14800;BME280;7491;57.750;11.970;2023-04-05T01:08:44;77974.34;;;-142.11;100.00
14800;BME280;7491;57.750;11.970;2023-04-05T01:11:15;77980.44;;;-142.11;100.00
14800;BME280;7491;57.750;11.970;2023-04-05T01:13:44;77986.56;;;-142.11;100.00
14800;BME280;7491;57.750;11.970;2023-04-05T01:16:13;77984.53;;;-142.11;100.00
14800;BME280;7491;57.750;11.970;2023-04-05T01:18:39;77980.44;;;-142.11;100.00
14800;BME280;7491;57.750;11.970;2023-04-05T01:21:25;77982.50;;;-142.11;100.00
14800;BME280;7491;57.750;11.970;2023-04-05T01:24:08;77996.78;;;-142.11;100.00
14800;BME280;7491;57.750;11.970;2023-04-05T01:27:01;78000.84;;;-142.11;100.00
14800;BME280;7491;57.750;11.970;2023-04-05T01:29:53;78013.09;;;-142.11;100.00
14800;BME280;7491;57.750;11.970;2023-04-05T01:32:38;78019.22;;;-142.11;100.00
14800;BME280;7491;57.750;11.970;2023-04-05T01:35:17;78029.41;;;-142.11;100.00
14800;BME280;7491;57.750;11.970;2023-04-05T01:37:47;78037.56;;;-142.11;100.00
14800;BME280;7491;57.750;11.970;2023-04-05T01:40:15;78037.56;;;-142.11;100.00
14800;BME280;7491;57.750;11.970;2023-04-05T01:42:43;78053.88;;;-142.11;100.00
14800;BME280;7491;57.750;11.970;2023-04-05T01:45:12;78060.00;;;-142.11;100.00
14800;BME280;7491;57.750;11.970;2023-04-05T01:47:39;78072.22;;;-142.11;100.00
14800;BME280;7491;57.750;11.970;2023-04-05T01:50:06;78076.31;;;-142.11;100.00
14800;BME280;7491;57.750;11.970;2023-04-05T01:52:33;78082.44;;;-142.11;100.00
14800;BME280;7491;57.750;11.970;2023-04-05T01:55:00;78094.66;;;-142.11;100.00
14800;BME280;7491;57.750;11.970;2023-04-05T01:57:27;78090.59;;;-142.11;100.00
14800;BME280;7491;57.750;11.970;2023-04-05T01:59:54;78098.75;;;-142.11;100.00
14800;BME280;7491;57.750;11.970;2023-04-05T02:02:22;78102.84;;;-142.11;100.00
14800;BME280;7491;57.750;11.970;2023-04-05T02:04:48;78108.94;;;-142.11;100.00
14800;BME280;7491;57.750;11.970;2023-04-05T02:07:15;78113.03;;;-142.11;100.00
14800;BME280;7491;57.750;11.970;2023-04-05T02:09:41;78090.59;;;-142.11;100.00
14800;BME280;7491;57.750;11.970;2023-04-05T02:12:08;78086.50;;;-142.11;100.00
14800;BME280;7491;57.750;11.970;2023-04-05T02:14:35;78092.63;;;-142.11;100.00
14800;BME280;7491;57.750;11.970;2023-04-05T02:17:01;78098.75;;;-142.11;100.00
14800;BME280;7491;57.750;11.970;2023-04-05T02:19:29;78098.75;;;-142.11;100.00
14800;BME280;7491;57.750;11.970;2023-04-05T02:22:01;78106.91;;;-142.11;100.00
14800;BME280;7491;57.750;11.970;2023-04-05T02:24:28;78106.91;;;-142.11;100.00
14800;BME280;7491;57.750;11.970;2023-04-05T02:26:54;78117.09;;;-142.11;100.00
14800;BME280;7491;57.750;11.970;2023-04-05T02:29:21;78121.19;;;-142.11;100.00
14800;BME280;7491;57.750;11.970;2023-04-05T02:31:48;78119.16;;;-142.11;100.00
14800;BME280;7491;57.750;11.970;2023-04-05T02:34:15;78113.03;;;-142.11;100.00
14800;BME280;7491;57.750;11.970;2023-04-05T02:36:42;78117.09;;;-142.11;100.00
14800;BME280;7491;57.750;11.970;2023-04-05T02:39:09;78117.09;;;-142.11;100.00
14800;BME280;7491;57.750;11.970;2023-04-05T02:41:37;78117.09;;;-142.11;100.00
14800;BME280;7491;57.750;11.970;2023-04-05T02:44:04;78127.31;;;-142.11;100.00
14800;BME280;7491;57.750;11.970;2023-04-05T02:46:30;78135.47;;;-142.11;100.00
14800;BME280;7491;57.750;11.970;2023-04-05T02:48:57;78131.38;;;-142.11;100.00
14800;BME280;7491;57.750;11.970;2023-04-05T02:51:24;78139.53;;;-142.11;100.00
14800;BME280;7491;57.750;11.970;2023-04-05T02:53:52;78125.28;;;-142.11;100.00
14800;BME280;7491;57.750;11.970;2023-04-05T02:56:19;78127.31;;;-142.11;100.00
14800;BME280;7491;57.750;11.970;2023-04-05T02:58:46;78137.50;;;-142.11;100.00
14800;BME280;7491;57.750;11.970;2023-04-05T03:01:13;78139.53;;;-142.11;100.00
14800;BME280;7491;57.750;11.970;2023-04-05T03:03:42;78145.66;;;-142.11;100.00
14800;BME280;7491;57.750;11.970;2023-04-05T03:06:08;78153.81;;;-142.11;100.00
14800;BME280;7491;57.750;11.970;2023-04-05T03:08:35;78153.81;;;-142.11;100.00
14800;BME280;7491;57.750;11.970;2023-04-05T03:11:05;78145.66;;;-142.11;100.00
14800;BME280;7491;57.750;11.970;2023-04-05T03:13:31;78145.66;;;-142.11;100.00
14800;BME280;7491;57.750;11.970;2023-04-05T03:15:58;78145.66;;;-142.11;100.00
14800;BME280;7491;57.750;11.970;2023-04-05T03:18:25;78141.59;;;-142.11;100.00
14800;BME280;7491;57.750;11.970;2023-04-05T03:20:54;78147.69;;;-142.11;100.00
14800;BME280;7491;57.750;11.970;2023-04-05T03:23:21;78149.75;;;-142.11;100.00
14800;BME280;7491;57.750;11.970;2023-04-05T03:25:53;78153.81;;;-142.11;100.00
14800;BME280;7491;57.750;11.970;2023-04-05T03:28:21;78164.03;;;-142.11;100.00
14800;BME280;7491;57.750;11.970;2023-04-05T03:30:48;78176.25;;;-142.11;100.00
14800;BME280;7491;57.750;11.970;2023-04-05T03:33:15;78172.19;;;-142.11;100.00
14800;BME280;7491;57.750;11.970;2023-04-05T03:35:42;78178.31;;;-142.11;100.00
14800;BME280;7491;57.750;11.970;2023-04-05T03:38:08;78188.50;;;-142.11;100.00
14800;BME280;7491;57.750;11.970;2023-04-05T03:40:35;78188.50;;;-142.11;100.00
14800;BME280;7491;57.750;11.970;2023-04-05T03:43:01;78188.50;;;-142.11;100.00
14800;BME280;7491;57.750;11.970;2023-04-05T03:45:29;78194.63;;;-142.11;100.00
14800;BME280;7491;57.750;11.970;2023-04-05T03:47:57;78202.78;;;-142.11;100.00
14800;BME280;7491;57.750;11.970;2023-04-05T03:50:24;78204.81;;;-142.11;100.00
14800;BME280;7491;57.750;11.970;2023-04-05T03:52:51;78202.78;;;-142.11;100.00
14800;BME280;7491;57.750;11.970;2023-04-05T03:55:17;78206.84;;;-142.11;100.00
14800;BME280;7491;57.750;11.970;2023-04-05T03:57:44;78212.97;;;-142.11;100.00
14800;BME280;7491;57.750;11.970;2023-04-05T04:00:11;78219.09;;;-142.11;100.00
14800;BME280;7491;57.750;11.970;2023-04-05T04:02:41;78219.09;;;-142.11;100.00
14800;BME280;7491;57.750;11.970;2023-04-05T04:05:09;78223.16;;;-142.11;100.00
14800;BME280;7491;57.750;11.970;2023-04-05T04:07:35;78225.22;;;-142.11;100.00
14800;BME280;7491;57.750;11.970;2023-04-05T04:10:02;78219.09;;;-142.11;100.00
14800;BME280;7491;57.750;11.970;2023-04-05T04:12:29;78229.28;;;-142.11;100.00
14800;BME280;7491;57.750;11.970;2023-04-05T04:14:55;78229.28;;;-142.11;100.00
14800;BME280;7491;57.750;11.970;2023-04-05T04:17:26;78235.41;;;-142.11;100.00
14800;BME280;7491;57.750;11.970;2023-04-05T04:19:55;78241.53;;;-142.11;100.00
14800;BME280;7491;57.750;11.970;2023-04-05T04:22:22;78235.41;;;-142.11;100.00
14800;BME280;7491;57.750;11.970;2023-04-05T04:24:51;78237.44;;;-142.11;100.00
14800;BME280;7491;57.750;11.970;2023-04-05T04:27:17;78239.50;;;-142.11;100.00
14800;BME280;7491;57.750;11.970;2023-04-05T04:29:45;78241.53;;;-142.11;100.00
14800;BME280;7491;57.750;11.970;2023-04-05T04:32:12;78239.50;;;-142.11;100.00
14800;BME280;7491;57.750;11.970;2023-04-05T04:34:39;78243.56;;;-142.11;100.00
14800;BME280;7491;57.750;11.970;2023-04-05T04:37:10;78239.50;;;-142.11;100.00
14800;BME280;7491;57.750;11.970;2023-04-05T04:39:42;78241.53;;;-142.11;100.00
14800;BME280;7491;57.750;11.970;2023-04-05T04:42:10;78249.69;;;-142.11;100.00
14800;BME280;7491;57.750;11.970;2023-04-05T04:44:37;78249.69;;;-142.11;100.00
14800;BME280;7491;57.750;11.970;2023-04-05T04:47:06;78249.69;;;-142.11;100.00
14800;BME280;7491;57.750;11.970;2023-04-05T04:49:37;78247.66;;;-142.11;100.00
14800;BME280;7491;57.750;11.970;2023-04-05T04:52:04;78263.97;;;-142.11;100.00
14800;BME280;7491;57.750;11.970;2023-04-05T04:54:34;78245.59;;;-142.11;100.00
14800;BME280;7491;57.750;11.970;2023-04-05T04:57:01;78249.69;;;-142.11;100.00
14800;BME280;7491;57.750;11.970;2023-04-05T04:59:28;78257.84;;;-142.11;100.00
14800;BME280;7491;57.750;11.970;2023-04-05T05:01:55;78247.66;;;-142.11;100.00
14800;BME280;7491;57.750;11.970;2023-04-05T05:04:21;78249.69;;;-142.11;100.00
14800;BME280;7491;57.750;11.970;2023-04-05T05:06:49;78233.38;;;-142.11;100.00
14800;BME280;7491;57.750;11.970;2023-04-05T05:09:16;78241.53;;;-142.11;100.00
14800;BME280;7491;57.750;11.970;2023-04-05T05:11:44;78245.59;;;-142.11;100.00
14800;BME280;7491;57.750;11.970;2023-04-05T05:14:10;78243.56;;;-142.11;100.00
14800;BME280;7491;57.750;11.970;2023-04-05T05:16:37;78237.44;;;-142.11;100.00
14800;BME280;7491;57.750;11.970;2023-04-05T05:19:03;78237.44;;;-142.11;100.00
14800;BME280;7491;57.750;11.970;2023-04-05T05:21:30;78231.34;;;-142.11;100.00
14800;BME280;7491;57.750;11.970;2023-04-05T05:23:57;78235.41;;;-142.11;100.00
14800;BME280;7491;57.750;11.970;2023-04-05T05:26:23;78178.31;;;-142.11;100.00
14800;BME280;7491;57.750;11.970;2023-04-05T05:28:52;78072.22;;;-142.11;100.00
14800;BME280;7491;57.750;11.970;2023-04-05T05:31:18;77947.81;;;-142.11;100.00
14800;BME280;7491;57.750;11.970;2023-04-05T05:33:45;77798.94;;;-142.11;100.00
14800;BME280;7491;57.750;11.970;2023-04-05T05:36:14;77829.53;;;-142.11;100.00
14800;BME280;7491;57.750;11.970;2023-04-05T05:38:41;77827.50;;;-142.11;100.00
14800;BME280;7491;57.750;11.970;2023-04-05T05:41:08;77719.41;;;-142.11;100.00
14800;BME280;7491;57.750;11.970;2023-04-05T05:43:35;77711.25;;;-142.11;100.00
14800;BME280;7491;57.750;11.970;2023-04-05T05:46:03;77621.50;;;-142.11;100.00
14800;BME280;7491;57.750;11.970;2023-04-05T05:48:29;77525.66;;;-142.11;100.00
14800;BME280;7491;57.750;11.970;2023-04-05T05:50:57;77480.78;;;-142.11;100.00
14800;BME280;7491;57.750;11.970;2023-04-05T05:53:25;77576.63;;;-142.11;100.00
14800;BME280;7491;57.750;11.970;2023-04-05T05:55:52;77603.16;;;-142.11;100.00
14800;BME280;7491;57.750;11.970;2023-04-05T05:58:19;77654.13;;;-142.11;100.00
14800;BME280;7491;57.750;11.970;2023-04-05T06:00:45;77662.28;;;-142.11;100.00
14800;BME280;7491;57.750;11.970;2023-04-05T06:03:13;77662.28;;;-142.11;100.00
14800;BME280;7491;57.750;11.970;2023-04-05T06:05:49;77662.28;;;-142.11;100.00
14800;BME280;7491;57.750;11.970;2023-04-05T06:08:16;77639.88;;;-142.11;100.00
14800;BME280;7491;57.750;11.970;2023-04-05T06:10:42;77633.75;;;-142.11;100.00
14800;BME280;7491;57.750;11.970;2023-04-05T06:13:09;77625.59;;;-142.11;100.00
14800;BME280;7491;57.750;11.970;2023-04-05T06:15:36;77613.34;;;-142.11;100.00
14800;BME280;7491;57.750;11.970;2023-04-05T06:18:02;77617.44;;;-142.11;100.00
14800;BME280;7491;57.750;11.970;2023-04-05T06:20:30;77609.28;;;-142.11;100.00
14800;BME280;7491;57.750;11.970;2023-04-05T06:22:57;77603.16;;;-142.11;100.00
14800;BME280;7491;57.750;11.970;2023-04-05T06:25:23;77613.34;;;-142.11;100.00
14800;BME280;7491;57.750;11.970;2023-04-05T06:27:50;77597.03;;;-142.11;100.00
14800;BME280;7491;57.750;11.970;2023-04-05T06:30:17;77586.84;;;-142.11;100.00
14800;BME280;7491;57.750;11.970;2023-04-05T06:32:44;77584.78;;;-142.11;100.00
14800;BME280;7491;57.750;11.970;2023-04-05T06:35:12;77578.69;;;-142.11;100.00
14800;BME280;7491;57.750;11.970;2023-04-05T06:37:40;77570.53;;;-142.11;100.00
14800;BME280;7491;57.750;11.970;2023-04-05T06:40:09;77578.69;;;-142.11;100.00
14800;BME280;7491;57.750;11.970;2023-04-05T06:42:35;77582.75;;;-142.11;100.00
14800;BME280;7491;57.750;11.970;2023-04-05T06:45:02;77592.94;;;-142.11;100.00
14800;BME280;7491;57.750;11.970;2023-04-05T06:47:32;77592.94;;;-142.11;100.00
14800;BME280;7491;57.750;11.970;2023-04-05T06:49:59;77564.41;;;-142.11;100.00
14800;BME280;7491;57.750;11.970;2023-04-05T06:52:26;77546.06;;;-142.11;100.00
14800;BME280;7491;57.750;11.970;2023-04-05T06:54:55;77507.31;;;-142.11;100.00
14800;BME280;7491;57.750;11.970;2023-04-05T06:57:22;77495.06;;;-142.11;100.00
14800;BME280;7491;57.750;11.970;2023-04-05T06:59:50;77488.94;;;-142.11;100.00
14800;BME280;7491;57.750;11.970;2023-04-05T07:02:16;77472.63;;;-142.11;100.00
14800;BME280;7491;57.750;11.970;2023-04-05T07:04:43;77448.16;;;-142.11;100.00
14800;BME280;7491;57.750;11.970;2023-04-05T07:07:10;77431.84;;;-142.11;100.00
14800;BME280;7491;57.750;11.970;2023-04-05T07:09:37;77419.63;;;-142.11;100.00
14800;BME280;7491;57.750;11.970;2023-04-05T07:12:06;77387.00;;;-142.11;100.00
14800;BME280;7491;57.750;11.970;2023-04-05T07:14:36;77378.84;;;-142.11;100.00
14800;BME280;7491;57.750;11.970;2023-04-05T07:17:03;77348.25;;;-142.11;100.00
14800;BME280;7491;57.750;11.970;2023-04-05T07:19:30;77329.88;;;-142.11;100.00
14800;BME280;7491;57.750;11.970;2023-04-05T07:21:58;77319.69;;;-142.11;100.00
14800;BME280;7491;57.750;11.970;2023-04-05T07:24:24;77313.56;;;-142.11;100.00
14800;BME280;7491;57.750;11.970;2023-04-05T07:26:51;77317.66;;;-142.11;100.00
14800;BME280;7491;57.750;11.970;2023-04-05T07:29:19;77272.78;;;-142.11;100.00
14800;BME280;7491;57.750;11.970;2023-04-05T07:31:45;77258.53;;;-142.11;100.00
14800;BME280;7491;57.750;11.970;2023-04-05T07:34:12;77242.19;;;-142.11;100.00
14800;BME280;7491;57.750;11.970;2023-04-05T07:36:39;77227.94;;;-142.11;99.87
14800;BME280;7491;57.750;11.970;2023-04-05T07:39:12;77211.63;;;-142.11;99.30
14800;BME280;7491;57.750;11.970;2023-04-05T07:41:41;77219.78;;;-142.11;97.48
14800;BME280;7491;57.750;11.970;2023-04-05T07:44:08;77201.41;;;-142.11;97.73
14800;BME280;7491;57.750;11.970;2023-04-05T07:46:44;77191.22;;;-142.11;97.49
14800;BME280;7491;57.750;11.970;2023-04-05T07:49:11;77201.41;;;-142.11;96.81
14800;BME280;7491;57.750;11.970;2023-04-05T07:51:40;77240.16;;;-142.11;97.75
14800;BME280;7491;57.750;11.970;2023-04-05T07:54:09;77301.34;;;-142.11;97.75
14800;BME280;7491;57.750;11.970;2023-04-05T07:56:40;77248.31;;;-142.11;97.31
14800;BME280;7491;57.750;11.970;2023-04-05T07:59:07;77258.53;;;-142.11;96.89
14800;BME280;7491;57.750;11.970;2023-04-05T08:01:33;77248.31;;;-142.11;95.95
14800;BME280;7491;57.750;11.970;2023-04-05T08:04:01;77225.88;;;-142.11;95.28
14800;BME280;7491;57.750;11.970;2023-04-05T08:06:28;77242.19;;;-142.11;95.57
14800;BME280;7491;57.750;11.970;2023-04-05T08:08:55;77234.03;;;-142.11;95.38
14800;BME280;7491;57.750;11.970;2023-04-05T08:11:22;77246.28;;;-142.11;95.80
14800;BME280;7491;57.750;11.970;2023-04-05T08:13:50;77213.66;;;-142.11;96.09
14800;BME280;7491;57.750;11.970;2023-04-05T08:16:18;77191.22;;;-142.11;95.78
14800;BME280;7491;57.750;11.970;2023-04-05T08:18:45;77170.84;;;-142.11;94.76
14800;BME280;7491;57.750;11.970;2023-04-05T08:21:13;77168.78;;;-142.11;94.23
14800;BME280;7491;57.750;11.970;2023-04-05T08:23:40;77150.44;;;-142.11;94.33
14800;BME280;7491;57.750;11.970;2023-04-05T08:26:07;77187.16;;;-142.11;93.79
14800;BME280;7491;57.750;11.970;2023-04-05T08:28:33;77174.91;;;-142.11;93.76
14800;BME280;7491;57.750;11.970;2023-04-05T08:31:00;77164.72;;;-142.11;94.48
14800;BME280;7491;57.750;11.970;2023-04-05T08:33:27;77166.75;;;-142.11;94.14
14800;BME280;7491;57.750;11.970;2023-04-05T08:35:56;77156.56;;;-142.11;94.58
14800;BME280;7491;57.750;11.970;2023-04-05T08:38:24;77125.97;;;-142.11;93.78
14800;BME280;7491;57.750;11.970;2023-04-05T08:40:50;77117.81;;;-142.11;93.96
14800;BME280;7491;57.750;11.970;2023-04-05T08:43:22;77117.81;;;-142.11;93.51
14800;BME280;7491;57.750;11.970;2023-04-05T08:45:51;77091.31;;;-142.11;93.97
14800;BME280;7491;57.750;11.970;2023-04-05T08:48:19;77062.75;;;-142.11;93.40
14800;BME280;7491;57.750;11.970;2023-04-05T08:50:49;77075.00;;;-142.11;93.23
14800;BME280;7491;57.750;11.970;2023-04-05T08:53:17;77079.06;;;-142.11;92.59
14800;BME280;7491;57.750;11.970;2023-04-05T08:55:46;77079.06;;;-142.11;91.98
14800;BME280;7491;57.750;11.970;2023-04-05T08:58:19;77054.59;;;-142.11;91.79
14800;BME280;7491;57.750;11.970;2023-04-05T09:00:46;77050.53;;;-142.11;92.77
14800;BME280;7491;57.750;11.970;2023-04-05T09:03:17;77042.38;;;-142.11;90.42
14800;BME280;7491;57.750;11.970;2023-04-05T09:05:47;77038.28;;;-142.11;90.57
14800;BME280;7491;57.750;11.970;2023-04-05T09:08:15;77017.91;;;-142.11;91.00
14800;BME280;7491;57.750;11.970;2023-04-05T09:10:42;77007.72;;;-142.11;91.66
14800;BME280;7491;57.750;11.970;2023-04-05T09:13:10;76989.34;;;-142.11;90.96
14800;BME280;7491;57.750;11.970;2023-04-05T09:15:37;77001.59;;;-142.11;90.52
14800;BME280;7491;57.750;11.970;2023-04-05T09:18:04;76993.44;;;-142.11;90.99
14800;BME280;7491;57.750;11.970;2023-04-05T09:20:32;76977.13;;;-142.11;90.78
14800;BME280;7491;57.750;11.970;2023-04-05T09:22:59;76999.56;;;-142.11;90.34
14800;BME280;7491;57.750;11.970;2023-04-05T09:25:33;77005.66;;;-142.11;90.23
14800;BME280;7491;57.750;11.970;2023-04-05T09:28:02;77003.63;;;-142.11;90.58
14800;BME280;7491;57.750;11.970;2023-04-05T09:30:31;77019.94;;;-142.11;90.78
14800;BME280;7491;57.750;11.970;2023-04-05T09:32:58;77040.34;;;-142.11;90.46
14800;BME280;7491;57.750;11.970;2023-04-05T09:35:27;77007.72;;;-142.11;90.86
14800;BME280;7491;57.750;11.970;2023-04-05T09:37:55;77007.72;;;-142.11;90.75
14800;BME280;7491;57.750;11.970;2023-04-05T09:40:23;77007.72;;;-142.11;90.86
14800;BME280;7491;57.750;11.970;2023-04-05T09:42:50;76989.34;;;-142.11;90.39
14800;BME280;7491;57.750;11.970;2023-04-05T09:45:18;76989.34;;;-142.11;90.49
14800;BME280;7491;57.750;11.970;2023-04-05T09:47:56;76966.94;;;-142.11;91.20
14800;BME280;7491;57.750;11.970;2023-04-05T09:50:23;76995.47;;;-142.11;90.77
14800;BME280;7491;57.750;11.970;2023-04-05T09:52:51;77003.63;;;-142.11;90.09
14800;BME280;7491;57.750;11.970;2023-04-05T09:55:30;76991.41;;;-142.11;90.51
14800;BME280;7491;57.750;11.970;2023-04-05T09:57:57;76995.47;;;-142.11;90.85
14800;BME280;7491;57.750;11.970;2023-04-05T10:00:24;76991.41;;;-142.11;90.76
14800;BME280;7491;57.750;11.970;2023-04-05T10:02:54;76979.16;;;-142.11;90.75
14800;BME280;7491;57.750;11.970;2023-04-05T10:05:23;76960.81;;;-142.11;90.86
14800;BME280;7491;57.750;11.970;2023-04-05T10:07:50;76942.47;;;-142.11;90.15
14800;BME280;7491;57.750;11.970;2023-04-05T10:10:17;76918.00;;;-142.11;90.21
14800;BME280;7491;57.750;11.970;2023-04-05T10:12:48;76901.69;;;-142.11;90.23
14800;BME280;7491;57.750;11.970;2023-04-05T10:15:16;76909.84;;;-142.11;89.16
14800;BME280;7491;57.750;11.970;2023-04-05T10:17:47;76881.28;;;-142.11;88.98
14800;BME280;7491;57.750;11.970;2023-04-05T10:20:18;76864.97;;;-142.11;88.98
14800;BME280;7491;57.750;11.970;2023-04-05T10:22:56;76840.53;;;-142.11;88.75
14800;BME280;7491;57.750;11.970;2023-04-05T10:25:34;76832.34;;;-142.11;89.14
14800;BME280;7491;57.750;11.970;2023-04-05T10:28:29;76844.59;;;-142.11;87.54
14800;BME280;7491;57.750;11.970;2023-04-05T10:31:24;76887.41;;;-142.11;86.28
14800;BME280;7491;57.750;11.970;2023-04-05T10:36:47;76905.75;;;-142.11;87.33
14800;BME280;7491;57.750;11.970;2023-04-05T10:39:22;76913.91;;;-142.11;87.62
14800;BME280;7491;57.750;11.970;2023-04-05T10:41:57;76905.75;;;-142.11;86.67
14800;BME280;7491;57.750;11.970;2023-04-05T10:44:25;76918.00;;;-142.11;86.66
14800;BME280;7491;57.750;11.970;2023-04-05T10:46:53;76926.16;;;-142.11;86.36
14800;BME280;7491;57.750;11.970;2023-04-05T10:49:23;76934.31;;;-142.11;86.08
14800;BME280;7491;57.750;11.970;2023-04-05T10:51:54;76930.22;;;-142.11;85.84
14800;BME280;7491;57.750;11.970;2023-04-05T10:54:21;76952.66;;;-142.11;85.88
14800;BME280;7491;57.750;11.970;2023-04-05T10:56:48;76926.16;;;-142.11;86.20
14800;BME280;7491;57.750;11.970;2023-04-05T10:59:16;76905.75;;;-142.11;86.00
14800;BME280;7491;57.750;11.970;2023-04-05T11:01:44;76893.53;;;-142.11;86.56
14800;BME280;7491;57.750;11.970;2023-04-05T11:04:15;76899.66;;;-142.11;85.67
14800;BME280;7491;57.750;11.970;2023-04-05T11:06:46;76891.50;;;-142.11;85.81
14800;BME280;7491;57.750;11.970;2023-04-05T11:09:18;76869.06;;;-142.11;85.57
14800;BME280;7491;57.750;11.970;2023-04-05T11:11:57;76850.72;;;-142.11;87.21
14800;BME280;7491;57.750;11.970;2023-04-05T11:14:34;76840.53;;;-142.11;87.21
14800;BME280;7491;57.750;11.970;2023-04-05T11:17:22;76856.81;;;-142.11;86.40
14800;BME280;7491;57.750;11.970;2023-04-05T11:20:21;76834.41;;;-142.11;86.37
14800;BME280;7491;57.750;11.970;2023-04-05T11:23:10;76820.13;;;-142.11;86.79
14800;BME280;7491;57.750;11.970;2023-04-05T11:25:39;76809.94;;;-142.11;87.95
14800;BME280;7491;57.750;11.970;2023-04-05T11:31:19;76836.44;;;-142.11;86.65
14800;BME280;7491;57.750;11.970;2023-04-05T11:33:53;76826.25;;;-142.11;86.02
14800;BME280;7491;57.750;11.970;2023-04-05T11:36:55;76842.56;;;-142.11;85.77
14800;BME280;7491;57.750;11.970;2023-04-05T11:42:43;76864.97;;;-142.11;85.44
14800;BME280;7491;57.750;11.970;2023-04-05T11:45:20;76871.09;;;-142.11;86.51
14800;BME280;7491;57.750;11.970;2023-04-05T11:47:51;76869.06;;;-142.11;86.50
14800;BME280;7491;57.750;11.970;2023-04-05T11:50:21;76860.91;;;-142.11;86.57
14800;BME280;7491;57.750;11.970;2023-04-05T11:53:26;76824.22;;;-142.11;88.54
14800;BME280;7491;57.750;11.970;2023-04-05T12:03:13;76732.47;;;-142.11;84.75
14800;BME280;7491;57.750;11.970;2023-04-05T12:39:51;76710.03;;;-142.11;83.36
14800;BME280;7491;57.750;11.970;2023-04-05T13:03:04;76667.22;;;-142.11;82.23
14800;BME280;7491;57.750;11.970;2023-04-05T13:06:27;76669.25;;;-142.11;81.29
14800;BME280;7491;57.750;11.970;2023-04-05T13:19:35;76712.06;;;-142.11;81.92
14800;BME280;7491;57.750;11.970;2023-04-05T13:29:30;76720.22;;;-142.11;80.09
14800;BME280;7491;57.750;11.970;2023-04-05T13:32:23;76714.09;;;-142.11;79.80
14800;BME280;7491;57.750;11.970;2023-04-05T13:48:22;76689.63;;;-142.11;79.24
14800;BME280;7491;57.750;11.970;2023-04-05T13:51:13;76693.72;;;-142.11;79.88
14800;BME280;7491;57.750;11.970;2023-04-05T13:57:15;76642.75;;;-142.11;80.41
14800;BME280;7491;57.750;11.970;2023-04-05T13:59:55;76657.03;;;-142.11;79.87
14800;BME280;7491;57.750;11.970;2023-04-05T14:02:23;76648.88;;;-142.11;79.70
14800;BME280;7491;57.750;11.970;2023-04-05T14:05:09;76654.97;;;-142.11;80.17
14800;BME280;7491;57.750;11.970;2023-04-05T14:08:08;76632.56;;;-142.11;79.56
14800;BME280;7491;57.750;11.970;2023-04-05T14:24:21;76675.38;;;-142.11;79.14
14800;BME280;7491;57.750;11.970;2023-04-05T14:33:55;76636.63;;;-142.11;79.41
14800;BME280;7491;57.750;11.970;2023-04-05T14:43:36;76626.44;;;-142.11;79.63
14800;BME280;7491;57.750;11.970;2023-04-05T14:46:32;76610.13;;;-142.11;79.22
14800;BME280;7491;57.750;11.970;2023-04-05T14:50:30;76581.59;;;-142.11;79.50
14800;BME280;7491;57.750;11.970;2023-04-05T14:59:46;76624.41;;;-142.11;79.17
14800;BME280;7491;57.750;11.970;2023-04-05T15:02:37;76622.34;;;-142.11;78.65
14800;BME280;7491;57.750;11.970;2023-04-05T15:05:10;76638.66;;;-142.11;77.83
14800;BME280;7491;57.750;11.970;2023-04-05T15:08:13;76663.13;;;-142.11;77.56
14800;BME280;7491;57.750;11.970;2023-04-05T15:14:47;76718.19;;;-142.11;77.98